createdAt,value
2017-08-09T00:03:02.606Z,13.67
2017-08-09T00:08:04.413Z,12.43
2017-08-09T00:13:06.115Z,14.77
2017-08-09T00:18:07.863Z,14.73
2017-08-09T00:23:10.418Z,15.07
2017-08-09T00:28:12.159Z,14.67
2017-08-09T00:33:14.636Z,15.23
2017-08-09T00:38:16.398Z,15.23
2017-08-09T00:43:18.191Z,14.93
2017-08-09T00:48:19.942Z,15.30
2017-08-09T00:53:21.659Z,13.97
2017-08-09T00:58:23.427Z,16.30
2017-08-09T01:03:25.136Z,14.10
2017-08-09T01:08:27.650Z,13.80
2017-08-09T01:13:29.431Z,15.80
2017-08-09T01:18:31.176Z,15.10
2017-08-09T01:23:32.868Z,17.57
2017-08-09T01:28:34.586Z,17.93
2017-08-09T01:33:36.319Z,19.10
2017-08-09T01:38:38.056Z,19.30
2017-08-09T01:43:39.811Z,21.03
2017-08-09T01:48:42.303Z,22.00
2017-08-09T01:53:44.035Z,21.90
2017-08-09T01:58:45.782Z,22.50
2017-08-09T02:03:47.639Z,24.00
2017-08-09T02:08:49.383Z,24.73
2017-08-09T02:13:51.107Z,23.87
2017-08-09T02:18:52.835Z,26.40
2017-08-09T02:23:55.294Z,27.60
2017-08-09T02:28:57.742Z,30.30
2017-08-09T02:33:59.533Z,29.90
2017-08-09T02:39:01.257Z,29.67
2017-08-09T02:44:02.992Z,31.27
2017-08-09T02:49:05.521Z,34.93
2017-08-09T02:54:07.266Z,31.70
2017-08-09T02:59:08.978Z,33.63
2017-08-09T03:04:10.699Z,30.03
2017-08-09T03:09:12.419Z,33.70
2017-08-09T03:14:14.156Z,32.23
2017-08-09T03:19:15.867Z,32.50
2017-08-09T03:24:17.587Z,31.20
2017-08-09T03:29:19.318Z,36.53
2017-08-09T03:34:21.022Z,35.97
2017-08-09T03:39:22.738Z,40.07
2017-08-09T03:44:24.463Z,39.57
2017-08-09T03:49:26.177Z,37.93
2017-08-09T03:54:27.915Z,35.47
2017-08-09T03:59:29.755Z,37.77
2017-08-09T04:04:31.494Z,36.40
2017-08-09T04:09:33.206Z,33.90
2017-08-09T04:14:34.942Z,34.90
2017-08-09T04:19:37.385Z,34.23
2017-08-09T04:24:39.834Z,33.00
2017-08-09T04:29:43.223Z,33.90
2017-08-09T04:34:45.655Z,32.70
2017-08-09T04:39:47.357Z,33.87
2017-08-09T04:44:49.083Z,31.87
2017-08-09T04:49:51.519Z,31.93
2017-08-09T04:54:53.230Z,31.20
2017-08-09T04:59:54.954Z,31.50
2017-08-09T05:04:57.399Z,28.87
2017-08-09T05:09:59.137Z,26.10
2017-08-09T05:15:00.855Z,27.93
2017-08-09T05:20:02.570Z,27.90
2017-08-09T05:25:04.328Z,25.37
2017-08-09T05:30:06.100Z,26.13
2017-08-09T05:35:07.840Z,22.50
2017-08-09T05:40:16.539Z,21.97
2017-08-09T05:45:18.338Z,21.50
2017-08-09T05:50:20.093Z,20.90
2017-08-09T05:55:21.807Z,19.50
2017-08-09T06:00:23.531Z,17.80
2017-08-09T06:05:25.314Z,14.47
2017-08-09T06:10:34.090Z,11.30
2017-08-09T06:15:36.540Z,11.60
2017-08-09T06:20:38.990Z,11.20
2017-08-09T06:25:40.714Z,12.70
2017-08-09T06:30:43.351Z,11.50
2017-08-09T06:35:45.081Z,12.97
2017-08-09T06:40:46.799Z,13.77
2017-08-09T06:45:48.534Z,16.47
2017-08-09T06:50:50.986Z,14.60
2017-08-09T06:55:53.443Z,15.97
2017-08-09T07:00:55.903Z,15.93
2017-08-09T07:05:57.666Z,14.73
2017-08-09T07:10:59.386Z,15.73
2017-08-09T07:16:01.085Z,18.70
2017-08-09T07:21:03.570Z,16.50
2017-08-09T07:26:05.323Z,17.17
2017-08-09T07:31:07.047Z,17.40
2017-08-09T07:36:08.741Z,15.60
2017-08-09T07:41:10.462Z,16.20
2017-08-09T07:46:12.170Z,14.00
2017-08-09T07:51:13.958Z,14.60
2017-08-09T07:56:15.666Z,17.30
2017-08-09T08:01:17.473Z,21.17
2017-08-09T08:06:19.239Z,21.20
2017-08-09T08:11:20.964Z,21.10
2017-08-09T08:16:23.607Z,22.03
2017-08-09T08:21:25.311Z,21.67
2017-08-09T08:26:27.004Z,20.87
2017-08-09T08:31:28.730Z,19.63
2017-08-09T08:36:30.502Z,19.73
2017-08-09T08:41:32.222Z,20.37
2017-08-09T08:46:33.963Z,21.63
2017-08-09T08:51:35.683Z,19.03
2017-08-09T08:56:37.442Z,18.40
2017-08-09T09:01:39.183Z,17.43
2017-08-09T09:06:40.951Z,16.70
2017-08-09T09:11:42.708Z,16.47
2017-08-09T09:16:44.511Z,16.07
2017-08-09T09:21:46.311Z,16.87
2017-08-09T09:26:48.037Z,14.63
2017-08-09T09:31:49.756Z,15.47
2017-08-09T09:36:51.470Z,16.10
2017-08-09T09:41:53.969Z,13.20
2017-08-09T09:46:55.671Z,14.00
2017-08-09T09:51:58.115Z,13.03
2017-08-09T09:56:59.820Z,12.90
2017-08-09T10:02:01.539Z,11.83
2017-08-09T10:07:03.373Z,9.50
2017-08-09T10:12:05.178Z,10.63
2017-08-09T10:17:06.911Z,9.60
2017-08-09T10:22:08.620Z,9.30
2017-08-09T10:27:10.338Z,8.77
2017-08-09T10:32:12.063Z,7.10
2017-08-09T10:37:14.108Z,8.40
2017-08-09T10:42:15.865Z,8.77
2017-08-09T10:47:24.653Z,6.70
2017-08-09T10:52:26.382Z,8.00
2017-08-09T10:57:28.121Z,6.00
2017-08-09T11:02:29.881Z,5.80
2017-08-09T11:07:31.653Z,5.00
2017-08-09T11:12:33.385Z,6.30
2017-08-09T11:17:35.103Z,5.30
2017-08-09T11:22:36.808Z,5.30
2017-08-09T11:27:38.559Z,4.70
2017-08-09T11:32:40.311Z,6.20
2017-08-09T11:37:42.017Z,5.30
2017-08-09T11:42:43.710Z,5.67
2017-08-09T11:47:45.501Z,5.50
2017-08-09T11:52:47.312Z,5.00
2017-08-09T11:57:49.066Z,6.00
2017-08-09T12:02:51.547Z,5.10
2017-08-09T12:07:53.310Z,6.47
2017-08-09T12:12:55.021Z,5.10
2017-08-09T12:17:56.773Z,5.20
2017-08-09T12:22:58.541Z,6.63
2017-08-09T12:28:00.255Z,6.90
2017-08-09T12:33:02.031Z,7.47
2017-08-09T12:38:03.738Z,6.73
2017-08-09T12:43:05.451Z,5.67
2017-08-09T12:48:07.925Z,6.33
2017-08-09T12:53:09.661Z,5.20
2017-08-09T12:58:11.364Z,5.10
2017-08-09T13:03:15.174Z,6.00
2017-08-09T13:08:17.011Z,3.80
2017-08-09T13:13:18.796Z,4.27
2017-08-09T13:18:20.558Z,3.93
2017-08-09T13:23:22.311Z,3.60
2017-08-09T13:28:24.078Z,3.00
2017-08-09T13:33:25.841Z,3.20
2017-08-09T13:38:27.573Z,2.37
2017-08-09T13:43:29.274Z,3.00
2017-08-09T13:48:30.990Z,2.60
2017-08-09T13:53:32.732Z,2.60
2017-08-09T13:58:34.467Z,2.30
2017-08-09T14:03:36.202Z,1.87
2017-08-09T14:08:38.666Z,1.80
2017-08-09T14:13:40.367Z,2.43
2017-08-09T14:18:42.120Z,1.40
2017-08-09T14:23:43.866Z,1.60
2017-08-09T14:28:45.634Z,1.50
2017-08-09T14:33:47.423Z,2.23
2017-08-09T14:38:49.171Z,2.27
2017-08-09T14:43:50.938Z,2.13
2017-08-09T14:48:52.642Z,1.60
2017-08-09T14:53:54.386Z,1.53
2017-08-09T14:58:56.110Z,1.80
2017-08-09T15:03:57.874Z,1.80
2017-08-09T15:08:59.598Z,1.50
2017-08-09T15:14:01.415Z,1.57
2017-08-09T15:19:03.179Z,1.77
2017-08-09T15:24:04.886Z,2.00
2017-08-09T15:29:06.604Z,1.73
2017-08-09T15:34:08.326Z,2.33
2017-08-09T15:39:10.038Z,2.03
2017-08-09T15:44:11.801Z,2.20
2017-08-09T15:49:13.513Z,2.47
2017-08-09T15:54:15.235Z,1.70
2017-08-09T15:59:17.015Z,2.00
2017-08-09T16:04:18.882Z,1.60
2017-08-09T16:09:20.580Z,1.50
2017-08-09T16:14:22.306Z,1.93
2017-08-09T16:19:24.050Z,1.73
2017-08-09T16:24:25.772Z,1.60
2017-08-09T16:29:28.241Z,1.67
2017-08-09T16:34:30.722Z,1.60
2017-08-09T16:39:32.417Z,2.20
2017-08-09T16:44:34.135Z,1.87
2017-08-09T16:49:35.885Z,1.87
2017-08-09T16:54:37.691Z,1.90
2017-08-09T16:59:39.401Z,2.77
2017-08-09T17:04:41.120Z,1.80
2017-08-09T17:09:42.886Z,1.90
2017-08-09T17:14:44.684Z,1.83
2017-08-09T17:19:46.467Z,1.57
2017-08-09T17:24:48.215Z,1.90
2017-08-09T17:29:50.003Z,1.80
2017-08-09T17:34:51.868Z,2.30
2017-08-09T17:39:53.616Z,2.03
2017-08-09T17:44:55.331Z,3.00
2017-08-09T17:49:57.040Z,2.23
2017-08-09T17:54:58.770Z,1.80
2017-08-09T18:00:00.479Z,3.03
2017-08-09T18:05:02.227Z,3.20
2017-08-09T18:10:03.966Z,2.30
2017-08-09T18:15:05.714Z,2.80
2017-08-09T18:20:07.462Z,2.10
2017-08-09T18:25:09.162Z,2.10
2017-08-09T18:30:10.902Z,2.37
2017-08-09T18:35:12.640Z,3.67
2017-08-09T18:40:14.396Z,2.27
2017-08-09T18:45:16.130Z,3.30
2017-08-09T18:50:17.894Z,3.17
2017-08-09T18:55:19.662Z,2.57
2017-08-09T19:00:21.401Z,2.93
2017-08-09T19:05:23.120Z,3.77
2017-08-09T19:10:24.829Z,2.17
2017-08-09T19:15:26.551Z,8.17
2017-08-09T19:20:28.266Z,4.13
2017-08-09T19:25:29.967Z,3.20
2017-08-09T19:30:32.422Z,2.70
2017-08-09T19:35:34.864Z,2.93
2017-08-09T19:40:36.612Z,2.10
2017-08-09T19:45:38.356Z,19.53
2017-08-09T19:50:40.818Z,7.90
2017-08-09T19:55:42.575Z,3.50
2017-08-09T20:00:45.077Z,4.90
2017-08-09T20:05:46.816Z,3.30
2017-08-09T20:10:48.626Z,3.30
2017-08-09T20:15:50.401Z,3.23
2017-08-09T20:20:52.118Z,3.00
2017-08-09T20:25:53.902Z,3.40
2017-08-09T20:30:55.624Z,5.30
2017-08-09T20:35:57.417Z,6.80
2017-08-09T20:40:59.132Z,5.70
2017-08-09T20:46:00.870Z,6.60
2017-08-09T20:51:02.711Z,5.30
2017-08-09T20:56:04.481Z,5.50
2017-08-09T21:01:06.234Z,5.13
2017-08-09T21:06:08.081Z,5.60
2017-08-09T21:11:09.829Z,6.10
2017-08-09T21:16:11.579Z,6.23
2017-08-09T21:21:13.338Z,5.20
2017-08-09T21:26:15.053Z,5.63
2017-08-09T21:31:16.802Z,5.87
2017-08-09T21:36:18.536Z,5.70
2017-08-09T21:41:20.347Z,5.90
2017-08-09T21:46:22.074Z,6.30
2017-08-09T21:51:24.549Z,6.13
2017-08-09T21:56:26.305Z,6.00
2017-08-09T22:01:28.039Z,6.20
2017-08-09T22:06:30.199Z,6.80
2017-08-09T22:11:31.988Z,5.43
2017-08-09T22:16:33.758Z,6.63
2017-08-09T22:21:35.534Z,6.77
2017-08-09T22:26:38.020Z,6.40
2017-08-09T22:31:39.745Z,7.03
2017-08-09T22:36:42.239Z,6.87
2017-08-09T22:41:43.967Z,7.40
2017-08-09T22:46:45.688Z,7.50
2017-08-09T22:51:47.419Z,6.63
2017-08-09T22:56:49.903Z,7.27
2017-08-09T23:01:51.608Z,7.67
2017-08-09T23:06:53.489Z,6.37
2017-08-09T23:11:55.938Z,5.57
2017-08-09T23:16:58.393Z,6.77
2017-08-09T23:22:00.101Z,6.60
2017-08-09T23:27:01.827Z,8.10
2017-08-09T23:32:03.554Z,6.93
2017-08-09T23:37:05.311Z,8.00
2017-08-09T23:42:07.018Z,7.87
2017-08-09T23:47:08.735Z,6.50
2017-08-09T23:52:10.465Z,6.47
2017-08-09T23:57:12.176Z,6.30
